sensor_id;sensor_type;location;lat;lon;timestamp;P1;durP1;ratioP1;P2;durP2;ratioP2
50355;SDS011;36264;51.296;-0.602;2022-11-04T00:00:44;6.47;;;2.35;;
50355;SDS011;36264;51.296;-0.602;2022-11-04T00:03:09;4.78;;;2.17;;
50355;SDS011;36264;51.296;-0.602;2022-11-04T00:05:35;3.40;;;2.00;;
50355;SDS011;36264;51.296;-0.602;2022-11-04T00:08:00;6.60;;;2.45;;
50355;SDS011;36264;51.296;-0.602;2022-11-04T00:10:44;3.80;;;2.33;;
50355;SDS011;36264;51.296;-0.602;2022-11-04T00:13:28;4.88;;;2.53;;
50355;SDS011;36264;51.296;-0.602;2022-11-04T00:15:54;4.07;;;2.22;;
50355;SDS011;36264;51.296;-0.602;2022-11-04T00:18:38;5.38;;;2.00;;
50355;SDS011;36264;51.296;-0.602;2022-11-04T00:21:03;4.80;;;2.40;;
50355;SDS011;36264;51.296;-0.602;2022-11-04T00:23:47;4.20;;;2.05;;
50355;SDS011;36264;51.296;-0.602;2022-11-04T00:26:31;4.95;;;2.15;;
50355;SDS011;36264;51.296;-0.602;2022-11-04T00:29:15;3.90;;;2.00;;
50355;SDS011;36264;51.296;-0.602;2022-11-04T00:31:40;4.03;;;2.22;;
50355;SDS011;36264;51.296;-0.602;2022-11-04T00:34:29;4.40;;;2.00;;
50355;SDS011;36264;51.296;-0.602;2022-11-04T00:36:54;3.67;;;2.00;;
50355;SDS011;36264;51.296;-0.602;2022-11-04T00:39:19;3.10;;;1.83;;
50355;SDS011;36264;51.296;-0.602;2022-11-04T00:41:45;4.28;;;2.13;;
50355;SDS011;36264;51.296;-0.602;2022-11-04T00:44:10;3.55;;;1.85;;
50355;SDS011;36264;51.296;-0.602;2022-11-04T00:46:35;3.65;;;2.20;;
50355;SDS011;36264;51.296;-0.602;2022-11-04T00:49:01;3.47;;;2.08;;
50355;SDS011;36264;51.296;-0.602;2022-11-04T00:51:26;3.92;;;2.10;;
50355;SDS011;36264;51.296;-0.602;2022-11-04T00:53:51;4.45;;;2.10;;
50355;SDS011;36264;51.296;-0.602;2022-11-04T00:56:17;5.65;;;2.78;;
50355;SDS011;36264;51.296;-0.602;2022-11-04T00:58:43;4.53;;;2.67;;
50355;SDS011;36264;51.296;-0.602;2022-11-04T01:01:09;3.50;;;2.15;;
50355;SDS011;36264;51.296;-0.602;2022-11-04T01:03:36;3.97;;;2.10;;
50355;SDS011;36264;51.296;-0.602;2022-11-04T01:06:03;4.00;;;2.10;;
50355;SDS011;36264;51.296;-0.602;2022-11-04T01:08:28;6.78;;;3.08;;
50355;SDS011;36264;51.296;-0.602;2022-11-04T01:10:54;7.15;;;2.92;;
50355;SDS011;36264;51.296;-0.602;2022-11-04T01:13:19;4.53;;;2.67;;
50355;SDS011;36264;51.296;-0.602;2022-11-04T01:15:44;6.00;;;3.13;;
50355;SDS011;36264;51.296;-0.602;2022-11-04T01:18:10;4.03;;;2.40;;
50355;SDS011;36264;51.296;-0.602;2022-11-04T01:20:35;6.13;;;3.60;;
50355;SDS011;36264;51.296;-0.602;2022-11-04T01:23:00;9.88;;;3.92;;
50355;SDS011;36264;51.296;-0.602;2022-11-04T01:25:26;6.13;;;3.53;;
50355;SDS011;36264;51.296;-0.602;2022-11-04T01:27:51;9.27;;;4.10;;
50355;SDS011;36264;51.296;-0.602;2022-11-04T01:30:16;7.82;;;3.45;;
50355;SDS011;36264;51.296;-0.602;2022-11-04T01:32:42;5.05;;;3.25;;
50355;SDS011;36264;51.296;-0.602;2022-11-04T01:35:07;11.40;;;4.40;;
50355;SDS011;36264;51.296;-0.602;2022-11-04T01:37:34;8.48;;;4.05;;
50355;SDS011;36264;51.296;-0.602;2022-11-04T01:39:59;7.00;;;3.45;;
50355;SDS011;36264;51.296;-0.602;2022-11-04T01:42:25;6.80;;;3.58;;
50355;SDS011;36264;51.296;-0.602;2022-11-04T01:44:51;7.88;;;4.05;;
50355;SDS011;36264;51.296;-0.602;2022-11-04T01:47:26;8.82;;;4.35;;
50355;SDS011;36264;51.296;-0.602;2022-11-04T01:49:54;7.22;;;3.80;;
50355;SDS011;36264;51.296;-0.602;2022-11-04T01:52:26;6.15;;;3.42;;
50355;SDS011;36264;51.296;-0.602;2022-11-04T01:54:56;7.32;;;3.45;;
50355;SDS011;36264;51.296;-0.602;2022-11-04T01:57:29;7.85;;;3.95;;
50355;SDS011;36264;51.296;-0.602;2022-11-04T02:00:00;10.35;;;3.92;;
50355;SDS011;36264;51.296;-0.602;2022-11-04T02:02:28;6.07;;;3.47;;
50355;SDS011;36264;51.296;-0.602;2022-11-04T02:04:54;6.13;;;3.42;;
50355;SDS011;36264;51.296;-0.602;2022-11-04T02:07:20;8.02;;;3.97;;
50355;SDS011;36264;51.296;-0.602;2022-11-04T02:09:45;4.75;;;2.80;;
50355;SDS011;36264;51.296;-0.602;2022-11-04T02:12:11;6.72;;;3.53;;
50355;SDS011;36264;51.296;-0.602;2022-11-04T02:14:55;6.68;;;3.58;;
50355;SDS011;36264;51.296;-0.602;2022-11-04T02:28:10;7.65;;;3.30;;
50355;SDS011;36264;51.296;-0.602;2022-11-04T02:30:44;9.13;;;3.50;;
50355;SDS011;36264;51.296;-0.602;2022-11-04T02:33:16;6.03;;;2.85;;
50355;SDS011;36264;51.296;-0.602;2022-11-04T02:38:18;5.22;;;2.95;;
50355;SDS011;36264;51.296;-0.602;2022-11-04T02:41:09;6.80;;;2.63;;
50355;SDS011;36264;51.296;-0.602;2022-11-04T02:43:44;5.55;;;2.97;;
50355;SDS011;36264;51.296;-0.602;2022-11-04T02:46:33;6.25;;;3.08;;
50355;SDS011;36264;51.296;-0.602;2022-11-04T02:49:12;7.47;;;3.05;;
50355;SDS011;36264;51.296;-0.602;2022-11-04T02:56:44;6.50;;;3.35;;
50355;SDS011;36264;51.296;-0.602;2022-11-04T02:59:35;5.28;;;2.72;;
50355;SDS011;36264;51.296;-0.602;2022-11-04T03:02:04;7.25;;;3.50;;
50355;SDS011;36264;51.296;-0.602;2022-11-04T03:04:42;7.80;;;3.72;;
50355;SDS011;36264;51.296;-0.602;2022-11-04T03:07:11;7.53;;;3.13;;
50355;SDS011;36264;51.296;-0.602;2022-11-04T03:09:43;8.02;;;3.42;;
50355;SDS011;36264;51.296;-0.602;2022-11-04T03:12:12;6.32;;;3.33;;
50355;SDS011;36264;51.296;-0.602;2022-11-04T03:14:43;8.75;;;3.40;;
50355;SDS011;36264;51.296;-0.602;2022-11-04T03:17:23;6.30;;;3.17;;
50355;SDS011;36264;51.296;-0.602;2022-11-04T03:22:22;6.78;;;3.65;;
50355;SDS011;36264;51.296;-0.602;2022-11-04T03:24:50;6.93;;;3.55;;
50355;SDS011;36264;51.296;-0.602;2022-11-04T03:32:23;8.50;;;3.60;;
50355;SDS011;36264;51.296;-0.602;2022-11-04T03:35:11;7.50;;;4.15;;
50355;SDS011;36264;51.296;-0.602;2022-11-04T03:37:38;10.43;;;4.20;;
50355;SDS011;36264;51.296;-0.602;2022-11-04T03:40:04;8.95;;;3.80;;
50355;SDS011;36264;51.296;-0.602;2022-11-04T03:42:30;6.78;;;3.65;;
50355;SDS011;36264;51.296;-0.602;2022-11-04T03:44:58;6.72;;;3.88;;
50355;SDS011;36264;51.296;-0.602;2022-11-04T03:47:24;6.95;;;3.88;;
50355;SDS011;36264;51.296;-0.602;2022-11-04T03:49:56;5.80;;;3.33;;
50355;SDS011;36264;51.296;-0.602;2022-11-04T03:52:29;8.18;;;4.05;;
50355;SDS011;36264;51.296;-0.602;2022-11-04T03:54:55;6.90;;;3.25;;
50355;SDS011;36264;51.296;-0.602;2022-11-04T04:00:06;7.03;;;3.33;;
50355;SDS011;36264;51.296;-0.602;2022-11-04T04:10:38;8.80;;;3.33;;
50355;SDS011;36264;51.296;-0.602;2022-11-04T04:13:43;11.77;;;4.10;;
50355;SDS011;36264;51.296;-0.602;2022-11-04T04:19:04;7.03;;;3.30;;
50355;SDS011;36264;51.296;-0.602;2022-11-04T04:21:34;5.90;;;3.10;;
50355;SDS011;36264;51.296;-0.602;2022-11-04T04:24:06;5.47;;;2.78;;
50355;SDS011;36264;51.296;-0.602;2022-11-04T04:26:53;7.47;;;3.40;;
50355;SDS011;36264;51.296;-0.602;2022-11-04T04:29:39;6.80;;;3.47;;
50355;SDS011;36264;51.296;-0.602;2022-11-04T04:32:08;7.20;;;3.10;;
50355;SDS011;36264;51.296;-0.602;2022-11-04T04:34:33;7.32;;;2.95;;
50355;SDS011;36264;51.296;-0.602;2022-11-04T04:37:08;7.00;;;2.90;;
50355;SDS011;36264;51.296;-0.602;2022-11-04T04:39:41;8.23;;;3.58;;
50355;SDS011;36264;51.296;-0.602;2022-11-04T04:42:30;6.85;;;3.25;;
50355;SDS011;36264;51.296;-0.602;2022-11-04T04:47:57;5.75;;;2.90;;
50355;SDS011;36264;51.296;-0.602;2022-11-04T04:50:24;9.48;;;3.17;;
50355;SDS011;36264;51.296;-0.602;2022-11-04T04:52:53;9.65;;;3.50;;
50355;SDS011;36264;51.296;-0.602;2022-11-04T04:55:20;6.40;;;2.75;;
50355;SDS011;36264;51.296;-0.602;2022-11-04T04:57:45;7.55;;;2.95;;
50355;SDS011;36264;51.296;-0.602;2022-11-04T05:00:12;5.93;;;2.67;;
50355;SDS011;36264;51.296;-0.602;2022-11-04T05:02:39;8.00;;;3.20;;
50355;SDS011;36264;51.296;-0.602;2022-11-04T05:05:05;6.10;;;2.88;;
50355;SDS011;36264;51.296;-0.602;2022-11-04T05:07:31;6.25;;;3.20;;
50355;SDS011;36264;51.296;-0.602;2022-11-04T05:09:56;7.45;;;3.30;;
50355;SDS011;36264;51.296;-0.602;2022-11-04T05:12:21;6.13;;;3.17;;
50355;SDS011;36264;51.296;-0.602;2022-11-04T05:14:47;11.90;;;4.35;;
50355;SDS011;36264;51.296;-0.602;2022-11-04T05:17:13;6.55;;;3.25;;
50355;SDS011;36264;51.296;-0.602;2022-11-04T05:19:39;9.50;;;3.80;;
50355;SDS011;36264;51.296;-0.602;2022-11-04T05:22:04;9.70;;;4.05;;
50355;SDS011;36264;51.296;-0.602;2022-11-04T05:24:30;7.82;;;3.88;;
50355;SDS011;36264;51.296;-0.602;2022-11-04T05:26:55;6.75;;;3.85;;
50355;SDS011;36264;51.296;-0.602;2022-11-04T05:29:20;8.07;;;3.70;;
50355;SDS011;36264;51.296;-0.602;2022-11-04T05:31:46;9.23;;;4.32;;
50355;SDS011;36264;51.296;-0.602;2022-11-04T05:34:12;9.30;;;4.00;;
50355;SDS011;36264;51.296;-0.602;2022-11-04T05:36:37;8.07;;;3.45;;
50355;SDS011;36264;51.296;-0.602;2022-11-04T05:39:03;8.98;;;4.43;;
50355;SDS011;36264;51.296;-0.602;2022-11-04T05:41:29;14.55;;;5.10;;
50355;SDS011;36264;51.296;-0.602;2022-11-04T05:43:56;8.02;;;3.53;;
50355;SDS011;36264;51.296;-0.602;2022-11-04T05:46:23;7.30;;;3.40;;
50355;SDS011;36264;51.296;-0.602;2022-11-04T05:48:48;12.65;;;4.40;;
50355;SDS011;36264;51.296;-0.602;2022-11-04T05:51:14;8.63;;;3.75;;
50355;SDS011;36264;51.296;-0.602;2022-11-04T05:53:41;7.25;;;3.67;;
50355;SDS011;36264;51.296;-0.602;2022-11-04T05:56:07;8.25;;;4.13;;
50355;SDS011;36264;51.296;-0.602;2022-11-04T05:58:33;7.03;;;3.45;;
50355;SDS011;36264;51.296;-0.602;2022-11-04T06:01:11;8.60;;;3.70;;
50355;SDS011;36264;51.296;-0.602;2022-11-04T06:03:51;9.40;;;4.15;;
50355;SDS011;36264;51.296;-0.602;2022-11-04T06:06:17;7.82;;;4.10;;
50355;SDS011;36264;51.296;-0.602;2022-11-04T06:08:43;9.98;;;4.00;;
50355;SDS011;36264;51.296;-0.602;2022-11-04T06:11:08;7.28;;;3.50;;
50355;SDS011;36264;51.296;-0.602;2022-11-04T06:13:33;7.55;;;4.32;;
50355;SDS011;36264;51.296;-0.602;2022-11-04T06:15:59;10.77;;;4.53;;
50355;SDS011;36264;51.296;-0.602;2022-11-04T06:18:24;9.82;;;4.13;;
50355;SDS011;36264;51.296;-0.602;2022-11-04T06:20:49;7.78;;;4.22;;
50355;SDS011;36264;51.296;-0.602;2022-11-04T06:23:29;8.88;;;4.43;;
50355;SDS011;36264;51.296;-0.602;2022-11-04T06:25:55;12.57;;;5.47;;
50355;SDS011;36264;51.296;-0.602;2022-11-04T06:28:20;9.93;;;4.70;;
50355;SDS011;36264;51.296;-0.602;2022-11-04T06:30:45;7.82;;;4.53;;
50355;SDS011;36264;51.296;-0.602;2022-11-04T06:33:11;12.02;;;5.38;;
50355;SDS011;36264;51.296;-0.602;2022-11-04T06:35:36;8.57;;;4.63;;
50355;SDS011;36264;51.296;-0.602;2022-11-04T06:38:01;9.45;;;4.85;;
50355;SDS011;36264;51.296;-0.602;2022-11-04T06:40:27;8.35;;;4.65;;
50355;SDS011;36264;51.296;-0.602;2022-11-04T06:42:52;9.07;;;4.55;;
50355;SDS011;36264;51.296;-0.602;2022-11-04T06:45:17;10.52;;;4.60;;
50355;SDS011;36264;51.296;-0.602;2022-11-04T06:47:42;9.77;;;4.72;;
50355;SDS011;36264;51.296;-0.602;2022-11-04T06:50:08;9.00;;;4.68;;
50355;SDS011;36264;51.296;-0.602;2022-11-04T06:52:35;8.45;;;4.93;;
50355;SDS011;36264;51.296;-0.602;2022-11-04T06:55:00;10.82;;;5.10;;
50355;SDS011;36264;51.296;-0.602;2022-11-04T06:57:25;13.48;;;5.22;;
50355;SDS011;36264;51.296;-0.602;2022-11-04T06:59:51;7.75;;;4.35;;
50355;SDS011;36264;51.296;-0.602;2022-11-04T07:02:16;9.88;;;4.97;;
50355;SDS011;36264;51.296;-0.602;2022-11-04T07:04:41;10.38;;;4.70;;
50355;SDS011;36264;51.296;-0.602;2022-11-04T07:07:07;9.93;;;4.35;;
50355;SDS011;36264;51.296;-0.602;2022-11-04T07:09:32;8.65;;;4.35;;
50355;SDS011;36264;51.296;-0.602;2022-11-04T07:11:59;6.47;;;3.63;;
50355;SDS011;36264;51.296;-0.602;2022-11-04T07:14:24;8.20;;;3.78;;
50355;SDS011;36264;51.296;-0.602;2022-11-04T07:16:50;9.90;;;3.95;;
50355;SDS011;36264;51.296;-0.602;2022-11-04T07:19:15;9.95;;;4.72;;
50355;SDS011;36264;51.296;-0.602;2022-11-04T07:21:40;12.40;;;4.20;;
50355;SDS011;36264;51.296;-0.602;2022-11-04T07:24:06;9.35;;;4.40;;
50355;SDS011;36264;51.296;-0.602;2022-11-04T07:26:31;8.88;;;4.28;;
50355;SDS011;36264;51.296;-0.602;2022-11-04T07:28:57;11.57;;;4.57;;
50355;SDS011;36264;51.296;-0.602;2022-11-04T07:31:24;14.43;;;4.78;;
50355;SDS011;36264;51.296;-0.602;2022-11-04T07:33:50;10.63;;;4.07;;
50355;SDS011;36264;51.296;-0.602;2022-11-04T07:36:16;8.30;;;4.10;;
50355;SDS011;36264;51.296;-0.602;2022-11-04T07:38:42;13.90;;;5.10;;
50355;SDS011;36264;51.296;-0.602;2022-11-04T07:41:08;8.43;;;4.32;;
50355;SDS011;36264;51.296;-0.602;2022-11-04T07:43:33;10.40;;;4.35;;
50355;SDS011;36264;51.296;-0.602;2022-11-04T07:46:06;8.63;;;4.25;;
50355;SDS011;36264;51.296;-0.602;2022-11-04T07:48:34;7.82;;;3.90;;
50355;SDS011;36264;51.296;-0.602;2022-11-04T07:51:03;14.90;;;4.47;;
50355;SDS011;36264;51.296;-0.602;2022-11-04T07:53:30;8.60;;;3.95;;
50355;SDS011;36264;51.296;-0.602;2022-11-04T07:55:56;6.53;;;3.22;;
50355;SDS011;36264;51.296;-0.602;2022-11-04T07:58:22;10.50;;;4.32;;
50355;SDS011;36264;51.296;-0.602;2022-11-04T08:00:48;8.23;;;4.13;;
50355;SDS011;36264;51.296;-0.602;2022-11-04T08:03:14;8.32;;;3.75;;
50355;SDS011;36264;51.296;-0.602;2022-11-04T08:05:39;10.23;;;4.28;;
50355;SDS011;36264;51.296;-0.602;2022-11-04T08:08:05;8.00;;;4.13;;
50355;SDS011;36264;51.296;-0.602;2022-11-04T08:10:31;9.98;;;3.80;;
50355;SDS011;36264;51.296;-0.602;2022-11-04T08:12:57;11.18;;;3.88;;
50355;SDS011;36264;51.296;-0.602;2022-11-04T08:15:23;9.13;;;4.20;;
50355;SDS011;36264;51.296;-0.602;2022-11-04T08:17:48;11.80;;;4.15;;
50355;SDS011;36264;51.296;-0.602;2022-11-04T08:20:13;8.80;;;4.75;;
50355;SDS011;36264;51.296;-0.602;2022-11-04T08:22:39;12.35;;;5.38;;
50355;SDS011;36264;51.296;-0.602;2022-11-04T08:25:04;10.35;;;4.60;;
50355;SDS011;36264;51.296;-0.602;2022-11-04T08:27:30;9.35;;;4.65;;
50355;SDS011;36264;51.296;-0.602;2022-11-04T08:29:56;11.02;;;4.40;;
50355;SDS011;36264;51.296;-0.602;2022-11-04T08:32:21;12.77;;;5.28;;
50355;SDS011;36264;51.296;-0.602;2022-11-04T08:34:47;11.45;;;5.18;;
50355;SDS011;36264;51.296;-0.602;2022-11-04T08:37:13;10.60;;;3.97;;
50355;SDS011;36264;51.296;-0.602;2022-11-04T08:39:40;11.02;;;4.97;;
50355;SDS011;36264;51.296;-0.602;2022-11-04T08:42:05;9.18;;;5.43;;
50355;SDS011;36264;51.296;-0.602;2022-11-04T08:44:31;7.38;;;4.50;;
50355;SDS011;36264;51.296;-0.602;2022-11-04T08:46:58;9.65;;;4.70;;
50355;SDS011;36264;51.296;-0.602;2022-11-04T08:49:24;8.10;;;4.43;;
50355;SDS011;36264;51.296;-0.602;2022-11-04T08:51:49;11.73;;;5.15;;
50355;SDS011;36264;51.296;-0.602;2022-11-04T08:54:21;12.00;;;4.90;;
50355;SDS011;36264;51.296;-0.602;2022-11-04T08:56:47;12.63;;;5.78;;
50355;SDS011;36264;51.296;-0.602;2022-11-04T08:59:13;11.75;;;4.78;;
50355;SDS011;36264;51.296;-0.602;2022-11-04T09:01:39;11.80;;;5.20;;
50355;SDS011;36264;51.296;-0.602;2022-11-04T09:04:04;10.90;;;5.72;;
50355;SDS011;36264;51.296;-0.602;2022-11-04T09:06:31;13.93;;;6.20;;
50355;SDS011;36264;51.296;-0.602;2022-11-04T09:08:59;14.35;;;6.20;;
50355;SDS011;36264;51.296;-0.602;2022-11-04T09:11:29;13.70;;;5.80;;
50355;SDS011;36264;51.296;-0.602;2022-11-04T09:13:59;13.88;;;7.35;;
50355;SDS011;36264;51.296;-0.602;2022-11-04T09:16:25;13.15;;;6.25;;
50355;SDS011;36264;51.296;-0.602;2022-11-04T09:18:51;14.82;;;6.57;;
50355;SDS011;36264;51.296;-0.602;2022-11-04T09:21:16;8.88;;;5.50;;
50355;SDS011;36264;51.296;-0.602;2022-11-04T09:23:42;12.05;;;6.65;;
50355;SDS011;36264;51.296;-0.602;2022-11-04T09:26:08;11.13;;;6.47;;
50355;SDS011;36264;51.296;-0.602;2022-11-04T09:28:36;11.90;;;6.97;;
50355;SDS011;36264;51.296;-0.602;2022-11-04T09:31:05;18.63;;;7.65;;
50355;SDS011;36264;51.296;-0.602;2022-11-04T09:33:41;13.63;;;6.93;;
50355;SDS011;36264;51.296;-0.602;2022-11-04T09:36:07;12.90;;;6.57;;
50355;SDS011;36264;51.296;-0.602;2022-11-04T09:38:35;16.05;;;6.82;;
50355;SDS011;36264;51.296;-0.602;2022-11-04T09:41:07;12.02;;;6.13;;
50355;SDS011;36264;51.296;-0.602;2022-11-04T09:43:50;11.02;;;6.45;;
50355;SDS011;36264;51.296;-0.602;2022-11-04T09:46:22;12.73;;;6.05;;
50355;SDS011;36264;51.296;-0.602;2022-11-04T09:48:51;15.20;;;6.20;;
50355;SDS011;36264;51.296;-0.602;2022-11-04T09:51:20;10.57;;;5.20;;
50355;SDS011;36264;51.296;-0.602;2022-11-04T09:53:50;12.00;;;5.75;;
50355;SDS011;36264;51.296;-0.602;2022-11-04T09:58:45;11.02;;;5.28;;
50355;SDS011;36264;51.296;-0.602;2022-11-04T10:09:39;19.10;;;7.00;;
50355;SDS011;36264;51.296;-0.602;2022-11-04T10:23:43;17.10;;;9.35;;
50355;SDS011;36264;51.296;-0.602;2022-11-04T10:32:12;14.20;;;5.75;;
50355;SDS011;36264;51.296;-0.602;2022-11-04T10:34:47;15.13;;;6.20;;
50355;SDS011;36264;51.296;-0.602;2022-11-04T10:37:22;13.77;;;5.47;;
50355;SDS011;36264;51.296;-0.602;2022-11-04T10:39:49;13.27;;;5.32;;
50355;SDS011;36264;51.296;-0.602;2022-11-04T10:42:20;9.32;;;4.95;;
50355;SDS011;36264;51.296;-0.602;2022-11-04T10:44:47;12.25;;;5.30;;
50355;SDS011;36264;51.296;-0.602;2022-11-04T10:53:08;9.45;;;4.80;;
50355;SDS011;36264;51.296;-0.602;2022-11-04T10:58:24;9.73;;;4.10;;
50355;SDS011;36264;51.296;-0.602;2022-11-04T11:00:53;9.07;;;3.92;;
50355;SDS011;36264;51.296;-0.602;2022-11-04T11:03:23;7.47;;;3.75;;
50355;SDS011;36264;51.296;-0.602;2022-11-04T11:05:55;6.30;;;3.03;;
50355;SDS011;36264;51.296;-0.602;2022-11-04T11:08:36;8.73;;;3.25;;
50355;SDS011;36264;51.296;-0.602;2022-11-04T11:11:02;10.57;;;3.72;;
50355;SDS011;36264;51.296;-0.602;2022-11-04T11:13:34;8.18;;;3.20;;
50355;SDS011;36264;51.296;-0.602;2022-11-04T11:16:12;10.07;;;3.58;;
50355;SDS011;36264;51.296;-0.602;2022-11-04T11:18:45;11.07;;;4.00;;
50355;SDS011;36264;51.296;-0.602;2022-11-04T11:21:49;9.85;;;3.70;;
50355;SDS011;36264;51.296;-0.602;2022-11-04T11:29:23;9.50;;;3.03;;
50355;SDS011;36264;51.296;-0.602;2022-11-04T11:31:51;7.47;;;2.70;;
50355;SDS011;36264;51.296;-0.602;2022-11-04T11:34:25;6.85;;;2.70;;
50355;SDS011;36264;51.296;-0.602;2022-11-04T11:36:55;7.72;;;2.67;;
50355;SDS011;36264;51.296;-0.602;2022-11-04T11:39:26;8.40;;;2.70;;
50355;SDS011;36264;51.296;-0.602;2022-11-04T11:44:27;6.47;;;2.40;;
50355;SDS011;36264;51.296;-0.602;2022-11-04T11:47:03;10.52;;;2.88;;
50355;SDS011;36264;51.296;-0.602;2022-11-04T11:49:35;7.32;;;3.03;;
50355;SDS011;36264;51.296;-0.602;2022-11-04T11:54:55;5.75;;;2.60;;
50355;SDS011;36264;51.296;-0.602;2022-11-04T11:57:39;6.82;;;2.30;;
50355;SDS011;36264;51.296;-0.602;2022-11-04T12:00:14;5.80;;;2.13;;
50355;SDS011;36264;51.296;-0.602;2022-11-04T12:05:26;5.37;;;1.90;;
50355;SDS011;36264;51.296;-0.602;2022-11-04T12:08:10;6.00;;;2.63;;
50355;SDS011;36264;51.296;-0.602;2022-11-04T12:11:06;3.95;;;1.58;;
50355;SDS011;36264;51.296;-0.602;2022-11-04T12:13:50;6.70;;;2.22;;
50355;SDS011;36264;51.296;-0.602;2022-11-04T12:40:34;4.35;;;1.63;;
50355;SDS011;36264;51.296;-0.602;2022-11-04T12:43:17;3.58;;;1.45;;
50355;SDS011;36264;51.296;-0.602;2022-11-04T12:46:03;6.53;;;1.63;;
50355;SDS011;36264;51.296;-0.602;2022-11-04T12:51:31;7.82;;;2.17;;
50355;SDS011;36264;51.296;-0.602;2022-11-04T13:05:50;3.47;;;1.50;;
50355;SDS011;36264;51.296;-0.602;2022-11-04T13:08:23;5.53;;;2.05;;
50355;SDS011;36264;51.296;-0.602;2022-11-04T13:13:49;3.33;;;1.17;;
50355;SDS011;36264;51.296;-0.602;2022-11-04T13:16:16;4.00;;;1.70;;
50355;SDS011;36264;51.296;-0.602;2022-11-04T13:18:41;5.60;;;2.20;;
50355;SDS011;36264;51.296;-0.602;2022-11-04T13:21:15;6.90;;;2.30;;
50355;SDS011;36264;51.296;-0.602;2022-11-04T13:23:56;5.28;;;2.50;;
50355;SDS011;36264;51.296;-0.602;2022-11-04T13:26:28;5.60;;;2.17;;
50355;SDS011;36264;51.296;-0.602;2022-11-04T13:29:02;3.30;;;1.70;;
50355;SDS011;36264;51.296;-0.602;2022-11-04T13:31:45;4.03;;;1.67;;
50355;SDS011;36264;51.296;-0.602;2022-11-04T13:34:39;5.32;;;1.60;;
50355;SDS011;36264;51.296;-0.602;2022-11-04T13:39:57;2.15;;;1.38;;
50355;SDS011;36264;51.296;-0.602;2022-11-04T13:45:57;5.38;;;1.60;;
50355;SDS011;36264;51.296;-0.602;2022-11-04T13:48:24;4.53;;;1.40;;
50355;SDS011;36264;51.296;-0.602;2022-11-04T13:51:05;2.80;;;1.30;;
50355;SDS011;36264;51.296;-0.602;2022-11-04T13:56:06;4.55;;;1.42;;
50355;SDS011;36264;51.296;-0.602;2022-11-04T13:58:32;3.22;;;1.30;;
50355;SDS011;36264;51.296;-0.602;2022-11-04T14:01:42;3.00;;;1.50;;
50355;SDS011;36264;51.296;-0.602;2022-11-04T14:03:50;3.28;;;1.30;;
50355;SDS011;36264;51.296;-0.602;2022-11-04T14:06:45;3.08;;;1.23;;
50355;SDS011;36264;51.296;-0.602;2022-11-04T14:14:46;3.00;;;1.40;;
50355;SDS011;36264;51.296;-0.602;2022-11-04T14:25:17;4.03;;;1.40;;
50355;SDS011;36264;51.296;-0.602;2022-11-04T14:27:50;3.63;;;1.40;;
50355;SDS011;36264;51.296;-0.602;2022-11-04T14:30:40;6.53;;;2.42;;
50355;SDS011;36264;51.296;-0.602;2022-11-04T14:33:15;8.02;;;3.17;;
50355;SDS011;36264;51.296;-0.602;2022-11-04T14:35:53;6.65;;;3.03;;
50355;SDS011;36264;51.296;-0.602;2022-11-04T14:38:27;6.28;;;2.80;;
50355;SDS011;36264;51.296;-0.602;2022-11-04T14:43:40;6.05;;;2.35;;
50355;SDS011;36264;51.296;-0.602;2022-11-04T14:46:08;4.45;;;1.73;;
50355;SDS011;36264;51.296;-0.602;2022-11-04T14:48:42;3.15;;;1.70;;
50355;SDS011;36264;51.296;-0.602;2022-11-04T14:51:23;4.20;;;1.90;;
50355;SDS011;36264;51.296;-0.602;2022-11-04T14:54:04;4.15;;;1.90;;
50355;SDS011;36264;51.296;-0.602;2022-11-04T14:56:34;6.00;;;2.75;;
50355;SDS011;36264;51.296;-0.602;2022-11-04T14:59:01;7.10;;;2.90;;
50355;SDS011;36264;51.296;-0.602;2022-11-04T15:01:33;6.10;;;2.50;;
50355;SDS011;36264;51.296;-0.602;2022-11-04T15:04:44;6.95;;;2.40;;
50355;SDS011;36264;51.296;-0.602;2022-11-04T15:06:53;5.55;;;2.17;;
50355;SDS011;36264;51.296;-0.602;2022-11-04T15:09:20;4.00;;;2.10;;
50355;SDS011;36264;51.296;-0.602;2022-11-04T15:11:47;5.25;;;2.30;;
50355;SDS011;36264;51.296;-0.602;2022-11-04T15:14:31;3.97;;;1.80;;
50355;SDS011;36264;51.296;-0.602;2022-11-04T15:17:00;5.45;;;2.03;;
50355;SDS011;36264;51.296;-0.602;2022-11-04T15:19:30;3.22;;;1.80;;
50355;SDS011;36264;51.296;-0.602;2022-11-04T15:22:01;5.15;;;1.80;;
50355;SDS011;36264;51.296;-0.602;2022-11-04T15:24:28;2.63;;;1.70;;
50355;SDS011;36264;51.296;-0.602;2022-11-04T15:26:56;3.50;;;1.75;;
50355;SDS011;36264;51.296;-0.602;2022-11-04T15:29:37;2.92;;;1.80;;
50355;SDS011;36264;51.296;-0.602;2022-11-04T15:32:03;3.83;;;1.77;;
50355;SDS011;36264;51.296;-0.602;2022-11-04T15:34:29;3.78;;;1.80;;
50355;SDS011;36264;51.296;-0.602;2022-11-04T15:36:56;2.95;;;1.58;;
50355;SDS011;36264;51.296;-0.602;2022-11-04T15:39:29;3.28;;;1.70;;
50355;SDS011;36264;51.296;-0.602;2022-11-04T15:41:59;3.38;;;1.25;;
50355;SDS011;36264;51.296;-0.602;2022-11-04T15:44:50;4.22;;;1.85;;
50355;SDS011;36264;51.296;-0.602;2022-11-04T15:49:42;11.40;;;2.95;;
50355;SDS011;36264;51.296;-0.602;2022-11-04T15:52:13;5.90;;;2.35;;
50355;SDS011;36264;51.296;-0.602;2022-11-04T15:54:42;6.32;;;2.67;;
50355;SDS011;36264;51.296;-0.602;2022-11-04T15:57:13;5.93;;;2.30;;
50355;SDS011;36264;51.296;-0.602;2022-11-04T16:00:23;7.60;;;2.70;;
50355;SDS011;36264;51.296;-0.602;2022-11-04T16:02:48;5.20;;;2.17;;
50355;SDS011;36264;51.296;-0.602;2022-11-04T16:05:25;6.18;;;2.58;;
50355;SDS011;36264;51.296;-0.602;2022-11-04T16:08:33;5.88;;;2.60;;
50355;SDS011;36264;51.296;-0.602;2022-11-04T16:11:07;8.45;;;2.92;;
50355;SDS011;36264;51.296;-0.602;2022-11-04T16:13:43;5.90;;;2.47;;
50355;SDS011;36264;51.296;-0.602;2022-11-04T16:18:51;5.28;;;2.50;;
50355;SDS011;36264;51.296;-0.602;2022-11-04T16:21:31;5.80;;;2.67;;
50355;SDS011;36264;51.296;-0.602;2022-11-04T16:24:00;6.22;;;2.72;;
50355;SDS011;36264;51.296;-0.602;2022-11-04T16:26:40;5.63;;;2.63;;
50355;SDS011;36264;51.296;-0.602;2022-11-04T16:29:09;5.78;;;2.65;;
50355;SDS011;36264;51.296;-0.602;2022-11-04T16:31:42;5.80;;;2.30;;
50355;SDS011;36264;51.296;-0.602;2022-11-04T16:34:10;5.25;;;2.40;;
50355;SDS011;36264;51.296;-0.602;2022-11-04T16:36:37;4.47;;;2.20;;
50355;SDS011;36264;51.296;-0.602;2022-11-04T16:39:02;6.68;;;2.72;;
50355;SDS011;36264;51.296;-0.602;2022-11-04T16:41:33;8.18;;;2.85;;
50355;SDS011;36264;51.296;-0.602;2022-11-04T16:44:01;5.40;;;2.20;;
50355;SDS011;36264;51.296;-0.602;2022-11-04T16:46:28;4.22;;;1.80;;
50355;SDS011;36264;51.296;-0.602;2022-11-04T16:48:54;4.03;;;1.95;;
50355;SDS011;36264;51.296;-0.602;2022-11-04T16:51:20;4.80;;;2.13;;
50355;SDS011;36264;51.296;-0.602;2022-11-04T16:53:47;5.63;;;2.13;;
50355;SDS011;36264;51.296;-0.602;2022-11-04T16:56:16;4.30;;;2.35;;
50355;SDS011;36264;51.296;-0.602;2022-11-04T16:58:43;6.57;;;2.55;;
50355;SDS011;36264;51.296;-0.602;2022-11-04T17:01:13;5.63;;;2.45;;
50355;SDS011;36264;51.296;-0.602;2022-11-04T17:03:39;5.85;;;2.42;;
50355;SDS011;36264;51.296;-0.602;2022-11-04T17:06:06;4.78;;;2.13;;
50355;SDS011;36264;51.296;-0.602;2022-11-04T17:08:31;6.60;;;2.92;;
50355;SDS011;36264;51.296;-0.602;2022-11-04T17:10:57;5.78;;;2.70;;
50355;SDS011;36264;51.296;-0.602;2022-11-04T17:13:23;6.35;;;2.50;;
50355;SDS011;36264;51.296;-0.602;2022-11-04T17:15:48;5.25;;;2.47;;
50355;SDS011;36264;51.296;-0.602;2022-11-04T17:18:14;5.07;;;2.50;;
50355;SDS011;36264;51.296;-0.602;2022-11-04T17:20:41;4.90;;;2.30;;
50355;SDS011;36264;51.296;-0.602;2022-11-04T17:23:13;7.00;;;2.95;;
50355;SDS011;36264;51.296;-0.602;2022-11-04T17:25:39;5.63;;;2.45;;
50355;SDS011;36264;51.296;-0.602;2022-11-04T17:28:05;6.22;;;2.88;;
50355;SDS011;36264;51.296;-0.602;2022-11-04T17:30:31;4.80;;;2.03;;
50355;SDS011;36264;51.296;-0.602;2022-11-04T17:32:56;4.70;;;2.00;;